Time;durP1;ratioP1;P1;durP2;ratioP2;P2;SDS_P1;SDS_P2;PMS_P1;PMS_P2;Temp;Humidity;BMP_temperature;BMP_pressure;BME280_temperature;BME280_humidity;BME280_pressure;Samples;Min_cycle;Max_cycle;Signal;HPM_P1;HPM_P2
2023/05/15 00:01:34;;;;;;;36.70;32.45;;;11.90;99.90;;;;;;5052595;28;20063;-60
2023/05/15 00:03:59;;;;;;;41.03;27.60;;;11.80;99.90;;;;;;5070429;28;20040;-60
2023/05/15 00:06:27;;;;;;;41.95;28.80;;;11.80;99.90;;;;;;5070319;28;20132;-60
2023/05/15 00:08:53;;;;;;;39.47;28.38;;;11.70;99.90;;;;;;5070174;28;20076;-62
2023/05/15 00:11:20;;;;;;;38.60;27.27;;;11.70;99.90;;;;;;5070254;28;20041;-61
2023/05/15 00:13:45;;;;;;;40.35;27.48;;;11.70;99.90;;;;;;5070143;28;20040;-59
2023/05/15 00:16:11;;;;;;;36.80;27.33;;;11.70;99.90;;;;;;5070609;28;20059;-59
2023/05/15 00:18:37;;;;;;;38.38;26.27;;;11.60;99.90;;;;;;5052286;28;20518;-59
2023/05/15 00:21:03;;;;;;;39.63;26.10;;;11.60;99.90;;;;;;5047483;28;20116;-60
2023/05/15 00:23:28;;;;;;;40.15;28.10;;;11.50;99.90;;;;;;5032071;28;20377;-60
2023/05/15 00:25:54;;;;;;;39.67;27.42;;;11.50;99.90;;;;;;5070038;28;20054;-60
2023/05/15 00:28:20;;;;;;;45.05;30.13;;;11.50;99.90;;;;;;5070117;28;20076;-59
2023/05/15 00:30:45;;;;;;;43.25;26.83;;;11.50;99.90;;;;;;5070129;28;20082;-60
2023/05/15 00:33:11;;;;;;;40.33;27.40;;;11.50;99.90;;;;;;5051971;28;20036;-60
2023/05/15 00:35:37;;;;;;;42.58;26.75;;;11.40;99.90;;;;;;5070521;28;20356;-60
2023/05/15 00:38:02;;;;;;;38.35;27.90;;;11.30;99.90;;;;;;5070918;28;20086;-61
2023/05/15 00:40:29;;;;;;;42.90;27.13;;;11.30;99.90;;;;;;5067484;28;20078;-60
2023/05/15 00:42:54;;;;;;;44.22;35.85;;;11.20;99.90;;;;;;5060213;28;20036;-59
2023/05/15 00:45:21;;;;;;;40.72;25.75;;;11.20;99.90;;;;;;5069867;28;20482;-61
2023/05/15 00:47:48;;;;;;;39.08;26.52;;;11.20;99.90;;;;;;5070165;28;20570;-60
2023/05/15 00:50:14;;;;;;;44.47;26.65;;;11.10;99.90;;;;;;5070075;28;20430;-61
2023/05/15 00:52:41;;;;;;;37.95;25.75;;;11.10;99.90;;;;;;5069615;28;20072;-60
2023/05/15 00:55:07;;;;;;;42.60;27.35;;;11.10;99.90;;;;;;5069515;28;20044;-61
2023/05/15 00:57:33;;;;;;;43.33;27.10;;;11.10;99.90;;;;;;5069976;28;20051;-60
2023/05/15 01:00:00;;;;;;;43.53;27.52;;;11.20;99.90;;;;;;5069658;28;20044;-60
2023/05/15 01:02:26;;;;;;;39.40;25.88;;;11.10;99.90;;;;;;5069959;28;20047;-60
2023/05/15 01:04:52;;;;;;;40.95;28.92;;;11.10;99.90;;;;;;5051647;28;20483;-60
2023/05/15 01:07:18;;;;;;;39.60;26.27;;;11.10;99.90;;;;;;5069574;28;20039;-61
2023/05/15 01:09:46;;;;;;;42.90;26.75;;;11.00;99.90;;;;;;5069732;28;20036;-59
2023/05/15 01:12:15;;;;;;;37.72;25.02;;;11.10;99.90;;;;;;5069530;28;20063;-60
2023/05/15 01:14:41;;;;;;;36.00;23.95;;;11.10;99.90;;;;;;5069309;28;20048;-62
2023/05/15 01:17:07;;;;;;;38.05;24.23;;;11.00;99.90;;;;;;5069603;28;20047;-60
2023/05/15 01:19:33;;;;;;;35.65;24.33;;;11.00;99.90;;;;;;5069761;28;20114;-61
2023/05/15 01:22:36;;;;;;;35.13;24.48;;;11.00;99.90;;;;;;5069545;28;20033;-59
2023/05/15 01:25:42;;;;;;;34.42;23.17;;;10.90;99.90;;;;;;5056523;28;20240;-59
2023/05/15 01:28:16;;;;;;;39.17;25.17;;;11.00;99.90;;;;;;5049434;28;20392;-60
2023/05/15 01:30:44;;;;;;;41.83;31.23;;;10.80;99.90;;;;;;5050107;28;20547;-59
2023/05/15 01:33:33;;;;;;;40.45;24.80;;;10.80;99.90;;;;;;5049680;28;20043;-61
2023/05/15 01:36:00;;;;;;;38.63;23.80;;;10.80;99.90;;;;;;5048449;28;20045;-60
2023/05/15 01:38:46;;;;;;;40.92;24.95;;;10.70;99.90;;;;;;5049619;28;20049;-60
2023/05/15 01:41:25;;;;;;;38.20;31.73;;;10.60;99.90;;;;;;5049395;28;20453;-61
2023/05/15 01:44:17;;;;;;;38.25;24.10;;;10.60;99.90;;;;;;5048752;28;20076;-60
2023/05/15 01:46:45;;;;;;;39.35;24.08;;;10.70;99.90;;;;;;5034958;28;20077;-61
2023/05/15 01:49:13;;;;;;;41.05;26.27;;;10.60;99.90;;;;;;5052319;28;20033;-61
2023/05/15 01:51:41;;;;;;;36.63;23.42;;;10.60;99.90;;;;;;5053381;28;20045;-59
2023/05/15 01:54:09;;;;;;;38.53;24.10;;;10.70;99.90;;;;;;5033385;28;20152;-62
2023/05/15 01:56:36;;;;;;;37.35;23.58;;;10.70;99.90;;;;;;5053401;28;20765;-62
2023/05/15 01:59:03;;;;;;;40.83;24.30;;;10.70;99.90;;;;;;5052812;28;20591;-60
2023/05/15 02:01:31;;;;;;;37.65;23.67;;;10.70;99.90;;;;;;5057700;28;20033;-60
2023/05/15 02:04:00;;;;;;;34.88;23.67;;;10.60;99.90;;;;;;5051486;28;20095;-60
2023/05/15 02:06:27;;;;;;;35.20;23.98;;;10.60;99.90;;;;;;5052941;28;20045;-60
2023/05/15 02:08:56;;;;;;;35.50;22.83;;;10.60;99.90;;;;;;5033780;28;20049;-60
2023/05/15 02:11:21;;;;;;;38.08;24.02;;;10.50;99.90;;;;;;5052860;28;20136;-59
2023/05/15 02:13:49;;;;;;;37.25;23.95;;;10.50;99.90;;;;;;5052667;28;20116;-60
2023/05/15 02:16:14;;;;;;;39.25;24.35;;;10.50;99.90;;;;;;5034899;28;20075;-59
2023/05/15 02:18:40;;;;;;;37.20;24.55;;;10.50;99.90;;;;;;5052284;28;20480;-59
2023/05/15 02:21:07;;;;;;;40.90;25.70;;;10.40;99.90;;;;;;5052912;28;20080;-60
2023/05/15 02:23:32;;;;;;;38.28;24.65;;;10.50;99.90;;;;;;5053015;28;20036;-61
2023/05/15 02:26:34;;;;;;;40.03;25.33;;;10.50;99.90;;;;;;5053130;28;20461;-61
2023/05/15 02:29:28;;;;;;;41.35;24.30;;;10.40;99.90;;;;;;5072569;28;20071;-59
2023/05/15 02:32:25;;;;;;;38.63;25.83;;;10.40;99.90;;;;;;5053434;28;20083;-59
2023/05/15 02:35:03;;;;;;;39.13;24.40;;;10.50;99.90;;;;;;5072286;28;20051;-60
2023/05/15 02:37:34;;;;;;;36.78;24.27;;;10.50;99.90;;;;;;5072862;28;20549;-59
2023/05/15 02:40:05;;;;;;;39.92;25.40;;;10.50;99.90;;;;;;5072279;28;20511;-60
2023/05/15 02:42:31;;;;;;;40.05;25.50;;;10.50;99.90;;;;;;5072535;28;20032;-60
2023/05/15 02:44:58;;;;;;;36.92;23.58;;;10.50;99.90;;;;;;5071740;28;20036;-60
2023/05/15 02:47:25;;;;;;;36.63;23.63;;;10.50;99.90;;;;;;5072567;28;20495;-59
2023/05/15 02:49:51;;;;;;;38.60;24.70;;;10.50;99.90;;;;;;5072259;28;20045;-58
2023/05/15 02:52:17;;;;;;;38.85;24.23;;;10.50;99.90;;;;;;5053980;28;20119;-57
2023/05/15 02:54:43;;;;;;;36.83;24.48;;;10.50;99.90;;;;;;5071828;28;20120;-59
2023/05/15 02:57:08;;;;;;;37.60;25.23;;;10.50;99.90;;;;;;5072073;28;20028;-58
2023/05/15 02:59:34;;;;;;;36.55;24.33;;;10.40;99.90;;;;;;5070953;28;20079;-59
2023/05/15 03:02:02;;;;;;;38.03;23.50;;;10.30;99.90;;;;;;5071893;28;20052;-59
2023/05/15 03:04:28;;;;;;;40.60;25.40;;;10.30;99.90;;;;;;5071809;28;20086;-61
2023/05/15 03:06:53;;;;;;;37.83;24.40;;;10.30;99.90;;;;;;5070281;28;20036;-60
2023/05/15 03:09:19;;;;;;;48.78;24.85;;;10.30;99.90;;;;;;5054179;28;20068;-59
2023/05/15 03:11:45;;;;;;;37.10;22.42;;;10.30;99.90;;;;;;5072277;28;20039;-61
2023/05/15 03:14:11;;;;;;;38.22;24.20;;;10.20;99.90;;;;;;5072022;28;20043;-59
2023/05/15 03:16:37;;;;;;;35.80;23.35;;;10.20;99.90;;;;;;5071674;28;20044;-59
2023/05/15 03:19:03;;;;;;;37.13;24.27;;;10.10;99.90;;;;;;5071557;28;20037;-61
2023/05/15 03:21:29;;;;;;;36.30;23.48;;;10.10;99.90;;;;;;5071805;28;20039;-59
2023/05/15 03:23:55;;;;;;;36.33;23.50;;;10.10;99.90;;;;;;5070416;28;20066;-59
2023/05/15 03:26:21;;;;;;;35.38;23.05;;;10.10;99.90;;;;;;5035844;28;20057;-60
2023/05/15 03:28:46;;;;;;;39.45;24.17;;;10.20;99.90;;;;;;5051074;28;20064;-60
2023/05/15 03:31:13;;;;;;;40.05;25.52;;;10.10;99.90;;;;;;5051226;28;20048;-60
2023/05/15 03:33:39;;;;;;;35.03;22.52;;;10.00;99.90;;;;;;5051636;28;20053;-58
2023/05/15 03:36:05;;;;;;;34.00;21.98;;;10.10;99.90;;;;;;5051831;28;20071;-59
2023/05/15 03:38:31;;;;;;;34.40;22.38;;;10.10;99.90;;;;;;5050346;28;20041;-60
2023/05/15 03:40:57;;;;;;;31.75;27.92;;;10.00;99.90;;;;;;5050927;28;20039;-59
2023/05/15 03:43:23;;;;;;;34.60;21.15;;;10.00;99.90;;;;;;5050782;28;20040;-59
2023/05/15 03:45:48;;;;;;;35.67;22.80;;;10.10;99.90;;;;;;5051196;28;20371;-59
2023/05/15 03:48:14;;;;;;;34.78;19.92;;;10.10;99.90;;;;;;5050712;28;20056;-61
2023/05/15 03:50:40;;;;;;;33.03;19.50;;;10.10;99.90;;;;;;5051533;28;20484;-59
2023/05/15 03:53:05;;;;;;;31.38;21.05;;;10.10;99.90;;;;;;5051177;28;20065;-58
2023/05/15 03:55:31;;;;;;;34.83;22.55;;;10.20;99.90;;;;;;5050716;28;20037;-61
2023/05/15 03:57:57;;;;;;;35.20;28.65;;;10.20;99.90;;;;;;5050823;28;20079;-60
2023/05/15 04:00:23;;;;;;;35.72;22.00;;;10.20;99.90;;;;;;5050489;28;20131;-60
2023/05/15 04:02:49;;;;;;;36.83;21.60;;;10.20;99.90;;;;;;5050501;28;20116;-61
2023/05/15 04:05:15;;;;;;;34.70;21.08;;;10.20;99.90;;;;;;5051585;28;20052;-58
2023/05/15 04:07:41;;;;;;;35.42;21.88;;;10.20;99.90;;;;;;5034675;28;20041;-58
2023/05/15 04:10:07;;;;;;;33.33;21.52;;;10.20;99.90;;;;;;5050531;28;20045;-59
2023/05/15 04:12:34;;;;;;;34.00;21.77;;;10.20;99.90;;;;;;5050378;28;20049;-59
2023/05/15 04:15:15;;;;;;;36.60;22.80;;;10.20;99.90;;;;;;5050227;28;20037;-59
2023/05/15 04:17:42;;;;;;;34.42;21.40;;;10.20;99.90;;;;;;5050373;28;20036;-59
2023/05/15 04:20:08;;;;;;;34.35;21.10;;;10.20;99.90;;;;;;5050451;28;20476;-60
2023/05/15 04:22:34;;;;;;;36.33;21.67;;;10.20;99.90;;;;;;5050044;28;20456;-61
2023/05/15 04:25:00;;;;;;;33.88;22.23;;;10.10;99.90;;;;;;5057615;28;20088;-61
2023/05/15 04:27:25;;;;;;;37.47;21.63;;;10.10;99.90;;;;;;5053187;28;20047;-60
2023/05/15 04:29:51;;;;;;;33.42;22.58;;;10.10;99.90;;;;;;5050519;28;20056;-61
2023/05/15 04:32:17;;;;;;;32.85;27.13;;;10.10;99.90;;;;;;5050385;28;20098;-60
2023/05/15 04:34:42;;;;;;;31.30;21.20;;;10.10;99.90;;;;;;5050345;28;20048;-60
2023/05/15 04:37:09;;;;;;;33.47;20.58;;;10.10;99.90;;;;;;5032105;28;20048;-59
2023/05/15 04:39:35;;;;;;;32.08;19.48;;;10.00;99.90;;;;;;5049035;28;20052;-60
2023/05/15 04:42:01;;;;;;;33.38;20.88;;;10.00;99.90;;;;;;5031787;28;20392;-61
2023/05/15 04:44:26;;;;;;;35.88;21.17;;;10.10;99.90;;;;;;5048429;28;20044;-61
2023/05/15 04:46:52;;;;;;;32.70;20.10;;;10.00;99.90;;;;;;5049967;28;20392;-60
2023/05/15 04:49:18;;;;;;;30.88;19.90;;;10.10;99.90;;;;;;5050248;28;20040;-60
2023/05/15 04:51:43;;;;;;;36.25;20.83;;;10.10;99.90;;;;;;5049741;28;20056;-60
2023/05/15 04:54:09;;;;;;;30.08;19.50;;;10.10;99.90;;;;;;5049694;28;20329;-61
2023/05/15 04:56:35;;;;;;;32.47;20.42;;;10.10;99.90;;;;;;5050069;28;20044;-59
2023/05/15 04:59:01;;;;;;;30.63;18.73;;;10.10;99.90;;;;;;5049929;28;20527;-60
2023/05/15 05:01:28;;;;;;;29.42;18.13;;;10.10;99.90;;;;;;5030651;28;20041;-61
2023/05/15 05:03:53;;;;;;;26.90;18.38;;;10.20;99.90;;;;;;5050037;28;20504;-59
2023/05/15 05:06:19;;;;;;;28.27;18.40;;;10.20;99.90;;;;;;5049484;28;20116;-60
2023/05/15 05:08:45;;;;;;;27.23;17.48;;;10.20;99.90;;;;;;5057360;28;20068;-58
2023/05/15 05:11:10;;;;;;;29.20;19.02;;;10.30;99.90;;;;;;5032337;28;20033;-60
2023/05/15 05:13:36;;;;;;;31.75;19.05;;;10.30;99.90;;;;;;5050269;28;20455;-60
2023/05/15 05:16:01;;;;;;;31.40;19.05;;;10.30;99.90;;;;;;5049586;28;20499;-61
2023/05/15 05:18:28;;;;;;;31.38;19.17;;;10.30;99.90;;;;;;5049695;28;20037;-59
2023/05/15 05:21:01;;;;;;;29.55;19.35;;;10.40;99.90;;;;;;5049740;28;20056;-60
2023/05/15 05:23:27;;;;;;;29.92;19.15;;;10.40;99.90;;;;;;5054733;28;20040;-61
2023/05/15 05:25:53;;;;;;;28.95;19.00;;;10.40;99.90;;;;;;5058539;28;20573;-61
2023/05/15 05:28:19;;;;;;;29.48;19.15;;;10.40;99.90;;;;;;5073540;28;20044;-60
2023/05/15 05:30:45;;;;;;;29.48;19.88;;;10.50;99.90;;;;;;5073557;28;20597;-61
2023/05/15 05:33:11;;;;;;;29.80;19.80;;;10.50;99.90;;;;;;5039024;28;20440;-60
2023/05/15 05:35:37;;;;;;;28.55;18.90;;;10.50;99.90;;;;;;5074277;28;20035;-61
2023/05/15 05:38:03;;;;;;;29.75;19.23;;;10.60;99.90;;;;;;5074394;28;20479;-60
2023/05/15 05:40:29;;;;;;;32.72;19.98;;;10.60;99.90;;;;;;5073306;28;20363;-61
2023/05/15 05:43:00;;;;;;;30.75;19.25;;;10.60;99.90;;;;;;5073356;28;20080;-60
2023/05/15 05:45:27;;;;;;;28.73;18.88;;;10.60;99.90;;;;;;5055664;28;20044;-60
2023/05/15 05:47:54;;;;;;;29.92;19.60;;;10.60;99.90;;;;;;5073704;28;20164;-61
2023/05/15 05:50:19;;;;;;;29.70;20.50;;;10.70;99.90;;;;;;5056077;28;20123;-59
2023/05/15 05:52:45;;;;;;;29.55;19.17;;;10.70;99.90;;;;;;5073258;28;20116;-60
2023/05/15 05:55:11;;;;;;;31.02;19.90;;;10.80;99.90;;;;;;5054687;28;20052;-59
2023/05/15 05:57:36;;;;;;;32.08;19.63;;;10.80;99.90;;;;;;5073365;28;20808;-61
2023/05/15 06:00:05;;;;;;;27.30;23.73;;;10.80;99.90;;;;;;5069468;28;20048;-62
2023/05/15 06:02:31;;;;;;;30.23;19.13;;;10.80;99.90;;;;;;5072663;28;20086;-60
2023/05/15 06:04:57;;;;;;;29.02;19.45;;;10.90;99.90;;;;;;5072926;28;20033;-61
2023/05/15 06:07:22;;;;;;;31.10;20.10;;;11.00;99.90;;;;;;5072839;28;20036;-58
2023/05/15 06:09:48;;;;;;;33.13;19.95;;;11.00;99.90;;;;;;5073087;28;20033;-60
2023/05/15 06:12:14;;;;;;;32.58;20.27;;;11.10;99.90;;;;;;5072512;28;20036;-61
2023/05/15 06:14:39;;;;;;;31.02;24.55;;;11.10;99.90;;;;;;5069418;28;20396;-60
2023/05/15 06:17:05;;;;;;;28.90;18.85;;;11.20;99.90;;;;;;5064050;28;20039;-60
2023/05/15 06:19:31;;;;;;;31.02;19.85;;;11.20;99.90;;;;;;5060920;28;20044;-60
2023/05/15 06:21:57;;;;;;;31.20;20.52;;;11.20;99.90;;;;;;5062647;28;20155;-60
2023/05/15 06:24:23;;;;;;;27.65;19.15;;;11.30;99.90;;;;;;5060984;28;20079;-60
2023/05/15 06:26:48;;;;;;;29.00;19.90;;;11.30;99.90;;;;;;5060517;28;20041;-59
2023/05/15 06:29:14;;;;;;;26.25;22.52;;;11.40;99.90;;;;;;5061592;28;20036;-60
2023/05/15 06:31:40;;;;;;;27.80;19.42;;;11.50;99.90;;;;;;5060654;28;20033;-61
2023/05/15 06:34:05;;;;;;;25.85;23.15;;;11.60;99.90;;;;;;5061240;28;21399;-59
2023/05/15 06:36:31;;;;;;;31.17;19.38;;;11.60;99.90;;;;;;5059844;28;20040;-62
2023/05/15 06:38:57;;;;;;;30.10;18.80;;;11.60;99.90;;;;;;5058808;28;20048;-59
2023/05/15 06:41:22;;;;;;;28.40;19.63;;;11.70;99.90;;;;;;5058815;28;20418;-60
2023/05/15 06:43:48;;;;;;;25.40;22.70;;;11.80;99.90;;;;;;5057959;28;20149;-62
2023/05/15 06:46:15;;;;;;;27.65;22.50;;;11.80;99.90;;;;;;5061333;28;20150;-59
2023/05/15 06:48:41;;;;;;;27.70;18.70;;;11.90;99.90;;;;;;5060393;28;20519;-59
2023/05/15 06:51:07;;;;;;;27.95;19.60;;;12.00;99.90;;;;;;5026642;28;20127;-60
2023/05/15 06:53:32;;;;;;;30.38;21.08;;;12.00;99.90;;;;;;5056523;28;20040;-61
2023/05/15 06:55:58;;;;;;;27.40;22.85;;;12.10;99.90;;;;;;5059395;28;20036;-60
2023/05/15 06:58:24;;;;;;;27.35;18.48;;;12.10;99.90;;;;;;5061472;28;20037;-60
2023/05/15 07:00:50;;;;;;;25.90;23.15;;;12.20;99.90;;;;;;5064925;28;20032;-60
2023/05/15 07:03:16;;;;;;;26.52;18.63;;;12.30;99.90;;;;;;5068621;28;20114;-60
2023/05/15 07:05:42;;;;;;;24.55;22.05;;;12.40;99.90;;;;;;5070114;28;20040;-59
2023/05/15 07:08:07;;;;;;;26.58;19.60;;;12.40;99.90;;;;;;5071031;28;20037;-60
2023/05/15 07:10:33;;;;;;;29.05;20.80;;;12.40;99.90;;;;;;5071788;28;20094;-59
2023/05/15 07:12:59;;;;;;;27.60;19.85;;;12.40;99.90;;;;;;5071581;28;20044;-59
2023/05/15 07:15:24;;;;;;;26.55;19.35;;;12.50;99.90;;;;;;5071791;28;20044;-59
2023/05/15 07:17:50;;;;;;;26.23;19.38;;;12.60;99.90;;;;;;5053753;28;20491;-60
2023/05/15 07:20:16;;;;;;;25.20;19.40;;;12.60;99.90;;;;;;5070198;28;20392;-59
2023/05/15 07:22:41;;;;;;;28.33;20.00;;;12.60;99.90;;;;;;5053468;28;20040;-59
2023/05/15 07:25:07;;;;;;;28.23;19.60;;;12.70;99.90;;;;;;5070648;28;20044;-60
2023/05/15 07:27:33;;;;;;;31.55;19.25;;;12.80;99.90;;;;;;5070806;28;20047;-60
2023/05/15 07:30:01;;;;;;;25.40;18.17;;;12.80;99.90;;;;;;5070804;28;20127;-61
2023/05/15 07:32:26;;;;;;;30.05;20.70;;;12.80;99.90;;;;;;5068203;28;20048;-60
2023/05/15 07:34:52;;;;;;;26.02;21.00;;;12.90;99.90;;;;;;5057380;28;20484;-62
2023/05/15 07:37:17;;;;;;;24.45;18.35;;;13.00;99.90;;;;;;5065824;28;20068;-59
2023/05/15 07:39:43;;;;;;;29.25;19.25;;;13.00;99.90;;;;;;5034736;28;20107;-61
2023/05/15 07:42:09;;;;;;;24.13;18.75;;;13.10;99.90;;;;;;5070303;28;20111;-61
2023/05/15 07:44:35;;;;;;;26.85;18.35;;;13.10;99.90;;;;;;5070184;28;20040;-61
2023/05/15 07:47:00;;;;;;;24.63;18.70;;;13.20;99.90;;;;;;5070558;28;20089;-62
2023/05/15 07:49:26;;;;;;;26.10;19.23;;;13.30;99.90;;;;;;5069915;28;20043;-60
2023/05/15 07:51:52;;;;;;;28.27;18.70;;;13.30;99.90;;;;;;5066743;28;20084;-60
2023/05/15 07:54:17;;;;;;;23.92;17.83;;;13.40;99.90;;;;;;5069506;28;20514;-61
2023/05/15 07:56:43;;;;;;;23.88;18.52;;;13.50;99.90;;;;;;5069649;28;20087;-62
2023/05/15 07:59:09;;;;;;;25.55;19.30;;;13.50;99.90;;;;;;5069075;28;20095;-61
2023/05/15 08:01:34;;;;;;;23.85;19.02;;;13.50;99.90;;;;;;5068883;28;20044;-63
2023/05/15 08:04:00;;;;;;;24.60;18.00;;;13.60;99.90;;;;;;5067202;28;20116;-62
2023/05/15 08:06:25;;;;;;;22.27;16.67;;;13.70;99.90;;;;;;5071358;28;20083;-63
2023/05/15 08:08:51;;;;;;;25.02;17.75;;;13.70;99.90;;;;;;5069924;28;20404;-62
2023/05/15 08:11:17;;;;;;;22.25;17.25;;;13.80;99.90;;;;;;5071816;28;20040;-61
2023/05/15 08:13:43;;;;;;;21.75;17.33;;;13.80;99.90;;;;;;5070996;28;20040;-62
2023/05/15 08:16:08;;;;;;;26.00;17.42;;;13.80;99.90;;;;;;5070670;28;20122;-61
2023/05/15 08:18:34;;;;;;;20.38;16.33;;;13.80;99.90;;;;;;5070774;28;20036;-61
2023/05/15 08:21:00;;;;;;;24.48;16.90;;;13.80;99.90;;;;;;5070941;28;20036;-59
2023/05/15 08:23:25;;;;;;;21.85;17.38;;;13.90;99.90;;;;;;5056425;28;20099;-58
2023/05/15 08:25:51;;;;;;;23.42;17.67;;;13.90;99.90;;;;;;5063375;28;20049;-59
2023/05/15 08:28:17;;;;;;;22.23;17.65;;;13.90;99.90;;;;;;5058003;28;20055;-61
2023/05/15 08:30:42;;;;;;;20.70;15.98;;;14.00;99.90;;;;;;5063061;28;20124;-61
2023/05/15 08:33:08;;;;;;;22.55;16.40;;;14.00;99.90;;;;;;5061835;28;20056;-62
2023/05/15 08:35:34;;;;;;;23.10;16.27;;;14.40;99.90;;;;;;5061821;28;20047;-62
2023/05/15 08:37:59;;;;;;;21.70;15.90;;;14.20;99.90;;;;;;5043869;28;20090;-62
2023/05/15 08:40:26;;;;;;;18.63;16.65;;;14.20;99.90;;;;;;5061411;28;20131;-61
2023/05/15 08:42:58;;;;;;;20.90;17.55;;;14.30;99.90;;;;;;5060356;28;20037;-62
2023/05/15 08:45:24;;;;;;;19.73;16.48;;;14.40;99.90;;;;;;5061466;28;20047;-61
2023/05/15 08:47:50;;;;;;;20.67;15.85;;;14.50;99.90;;;;;;5061834;28;20400;-62
2023/05/15 08:50:16;;;;;;;17.30;15.38;;;14.50;99.90;;;;;;5061294;28;20046;-61
2023/05/15 08:52:46;;;;;;;20.23;14.90;;;14.60;99.90;;;;;;5061656;28;20090;-62
2023/05/15 08:55:16;;;;;;;21.83;15.48;;;14.60;99.90;;;;;;5043829;28;20144;-60
2023/05/15 08:57:43;;;;;;;19.52;15.90;;;14.70;99.90;;;;;;5061228;28;20135;-61
2023/05/15 09:00:13;;;;;;;20.27;16.60;;;14.70;99.90;;;;;;5062389;28;20106;-62
2023/05/15 09:02:40;;;;;;;18.02;16.13;;;14.70;99.90;;;;;;5062592;28;20037;-62
2023/05/15 09:05:07;;;;;;;22.05;16.20;;;14.80;99.90;;;;;;5061606;28;20797;-61
2023/05/15 09:07:33;;;;;;;17.63;15.48;;;14.90;99.90;;;;;;5057745;28;20033;-60
2023/05/15 09:10:01;;;;;;;20.70;15.38;;;15.10;99.90;;;;;;5061212;28;20063;-62
2023/05/15 09:12:27;;;;;;;22.75;17.50;;;15.30;99.90;;;;;;5059248;28;20040;-62
2023/05/15 09:15:14;;;;;;;20.15;16.20;;;15.50;99.90;;;;;;5057974;28;20498;-61
2023/05/15 09:17:41;;;;;;;17.30;15.50;;;15.60;99.90;;;;;;5057202;28;20046;-62
2023/05/15 09:20:33;;;;;;;18.98;16.88;;;15.80;99.90;;;;;;5057089;28;20044;-62
2023/05/15 09:23:01;;;;;;;21.90;18.33;;;15.80;99.90;;;;;;5041094;28;20124;-61
2023/05/15 09:25:41;;;;;;;21.25;17.10;;;16.00;99.90;;;;;;5059160;28;20057;-61
2023/05/15 09:28:09;;;;;;;19.38;17.23;;;16.20;99.90;;;;;;5040505;28;20060;-62
2023/05/15 09:30:41;;;;;;;19.92;16.73;;;16.30;99.90;;;;;;5058624;28;20420;-60
2023/05/15 09:33:08;;;;;;;19.15;16.63;;;16.40;99.90;;;;;;5055279;28;20115;-61
2023/05/15 09:35:36;;;;;;;21.08;18.15;;;16.60;99.90;;;;;;5050789;28;20040;-62
2023/05/15 09:38:07;;;;;;;21.23;18.92;;;16.60;99.90;;;;;;5056100;28;20040;-61
2023/05/15 09:40:32;;;;;;;22.50;18.92;;;16.60;99.90;;;;;;5057520;28;20052;-62
2023/05/15 09:42:58;;;;;;;21.48;18.85;;;16.70;99.90;;;;;;5057098;28;20033;-61
2023/05/15 09:45:31;;;;;;;21.77;19.20;;;16.70;99.90;;;;;;5058203;28;20040;-61
2023/05/15 09:48:04;;;;;;;21.20;18.90;;;16.70;99.90;;;;;;5059124;28;20530;-59
2023/05/15 09:50:34;;;;;;;20.08;18.05;;;16.70;99.90;;;;;;5057532;28;20028;-58
2023/05/15 09:53:00;;;;;;;21.30;19.13;;;16.90;99.90;;;;;;5052243;28;20081;-59
2023/05/15 09:55:26;;;;;;;20.08;17.85;;;17.10;99.90;;;;;;5055373;28;20495;-58
2023/05/15 09:58:13;;;;;;;19.75;17.60;;;17.00;99.90;;;;;;5040750;28;20044;-58
2023/05/15 10:00:40;;;;;;;22.13;16.77;;;17.00;99.90;;;;;;5054205;28;20040;-61
2023/05/15 10:03:07;;;;;;;21.73;17.83;;;17.20;99.90;;;;;;5048442;28;20044;-62
2023/05/15 10:05:33;;;;;;;22.98;18.60;;;17.40;99.90;;;;;;5051770;28;20043;-59
2023/05/15 10:07:59;;;;;;;20.08;17.85;;;17.60;99.90;;;;;;5058770;28;20144;-59
2023/05/15 10:10:26;;;;;;;20.98;18.77;;;17.80;99.90;;;;;;5065797;28;20037;-62
2023/05/15 10:12:53;;;;;;;19.80;17.80;;;17.70;99.90;;;;;;5063878;28;20037;-59
2023/05/15 10:15:22;;;;;;;21.98;17.90;;;17.70;99.90;;;;;;5063223;28;20036;-62
2023/05/15 10:17:49;;;;;;;18.90;17.02;;;17.80;99.90;;;;;;5065033;28;20036;-60
2023/05/15 10:20:16;;;;;;;19.50;16.58;;;17.90;99.90;;;;;;5065511;28;20120;-62
2023/05/15 10:22:49;;;;;;;18.08;16.25;;;17.80;99.90;;;;;;5060324;28;20127;-62
2023/05/15 10:25:29;;;;;;;19.17;17.05;;;17.70;99.90;;;;;;5060370;28;20048;-60
2023/05/15 10:27:56;;;;;;;18.52;16.58;;;17.80;99.90;;;;;;5062608;28;20056;-61
2023/05/15 10:30:24;;;;;;;18.60;16.60;;;18.00;99.90;;;;;;5062885;28;20103;-62
2023/05/15 10:32:50;;;;;;;18.95;16.90;;;18.20;99.90;;;;;;5063840;28;20028;-62
2023/05/15 10:35:17;;;;;;;18.13;16.30;;;18.20;99.90;;;;;;5063299;28;20081;-58
2023/05/15 10:37:45;;;;;;;19.83;16.52;;;18.00;99.90;;;;;;5064269;28;20040;-59
2023/05/15 10:40:13;;;;;;;16.63;14.82;;;17.90;99.90;;;;;;5043306;28;20032;-59
2023/05/15 10:42:42;;;;;;;15.48;13.77;;;18.00;99.90;;;;;;5061929;28;20086;-59
2023/05/15 10:45:08;;;;;;;14.63;13.15;;;18.10;99.90;;;;;;5061410;28;20380;-60
2023/05/15 10:47:36;;;;;;;15.50;13.95;;;18.10;99.90;;;;;;5063112;28;20051;-60
2023/05/15 10:50:04;;;;;;;14.02;11.18;;;18.10;99.90;;;;;;5062078;28;20037;-60
2023/05/15 10:52:32;;;;;;;13.75;11.52;;;18.20;99.90;;;;;;5062713;28;20036;-59
2023/05/15 10:54:58;;;;;;;13.20;10.57;;;18.30;99.90;;;;;;5063054;28;20036;-59
2023/05/15 10:57:24;;;;;;;15.93;10.32;;;18.40;99.90;;;;;;5063608;28;20037;-59
2023/05/15 10:59:50;;;;;;;13.45;10.23;;;18.30;99.90;;;;;;5063460;28;20064;-60
2023/05/15 11:02:28;;;;;;;12.82;9.63;;;18.40;99.90;;;;;;5026993;28;20468;-60
2023/05/15 11:04:58;;;;;;;10.68;9.40;;;18.40;99.90;;;;;;5061204;28;20036;-60
2023/05/15 11:07:25;;;;;;;11.98;9.50;;;18.30;99.90;;;;;;5017894;28;23404;-59
2023/05/15 11:09:55;;;;;;;11.38;8.85;;;18.30;99.90;;;;;;5062070;28;20092;-61
2023/05/15 11:12:22;;;;;;;12.13;8.15;;;18.50;99.90;;;;;;5062442;28;20079;-59
2023/05/15 11:14:50;;;;;;;10.80;8.15;;;18.60;99.90;;;;;;5045077;28;20040;-60
2023/05/15 11:17:17;;;;;;;10.57;7.35;;;18.70;99.90;;;;;;5062885;28;20045;-60
2023/05/15 11:19:48;;;;;;;9.65;6.63;;;18.90;99.90;;;;;;5062206;28;20404;-60
2023/05/15 11:22:21;;;;;;;11.50;7.35;;;19.00;99.90;;;;;;5027444;28;20068;-60
2023/05/15 11:24:59;;;;;;;10.43;7.05;;;19.10;99.90;;;;;;5061274;28;20072;-61
2023/05/15 11:27:38;;;;;;;8.40;6.68;;;19.30;99.90;;;;;;5048838;28;20032;-61
2023/05/15 11:30:03;;;;;;;10.32;6.78;;;19.40;99.90;;;;;;5046206;28;20088;-60
2023/05/15 11:33:03;;;;;;;9.98;7.20;;;19.40;99.90;;;;;;5042848;28;20033;-60
2023/05/15 11:35:31;;;;;;;12.30;8.68;;;19.50;99.90;;;;;;5045450;28;20111;-60
2023/05/15 11:38:09;;;;;;;11.45;9.07;;;19.50;99.90;;;;;;5047676;28;20571;-60
2023/05/15 11:41:02;;;;;;;8.70;7.40;;;19.40;99.90;;;;;;5045300;28;20480;-60
2023/05/15 11:43:29;;;;;;;14.48;10.15;;;19.50;99.90;;;;;;5039041;28;20545;-60
2023/05/15 11:46:08;;;;;;;12.43;10.68;;;19.60;99.90;;;;;;5050337;28;20037;-60
2023/05/15 11:48:38;;;;;;;13.27;10.20;;;19.70;99.90;;;;;;5049665;28;20488;-60
2023/05/15 11:51:04;;;;;;;12.25;10.18;;;19.60;99.90;;;;;;5047163;28;20491;-62
2023/05/15 11:53:31;;;;;;;12.80;10.82;;;19.50;99.90;;;;;;5052164;28;20043;-60
2023/05/15 11:55:57;;;;;;;12.68;10.55;;;19.30;99.90;;;;;;5042804;28;20041;-60
2023/05/15 11:58:24;;;;;;;12.27;9.90;;;19.20;99.90;;;;;;5049808;28;20035;-60
2023/05/15 12:00:51;;;;;;;13.38;10.40;;;19.10;99.90;;;;;;5048215;28;20044;-61
2023/05/15 12:03:23;;;;;;;10.68;9.32;;;19.20;99.90;;;;;;5041098;28;20025;-59
2023/05/15 12:05:50;;;;;;;11.05;9.20;;;19.40;99.90;;;;;;5046013;28;20036;-60
2023/05/15 12:08:16;;;;;;;10.77;8.85;;;19.50;99.90;;;;;;5041474;28;20037;-60
2023/05/15 12:10:43;;;;;;;10.68;7.00;;;19.80;99.90;;;;;;5043911;28;20039;-59
2023/05/15 12:13:10;;;;;;;10.60;8.05;;;20.00;99.90;;;;;;5047961;28;20033;-60
2023/05/15 12:15:37;;;;;;;9.75;7.55;;;20.00;99.90;;;;;;5051326;28;20132;-60
2023/05/15 12:18:03;;;;;;;8.82;6.75;;;20.00;99.90;;;;;;5046672;28;20048;-62
2023/05/15 12:20:33;;;;;;;8.52;6.82;;;20.10;99.90;;;;;;5046393;28;20352;-61
2023/05/15 12:22:58;;;;;;;10.15;7.15;;;20.40;99.90;;;;;;5043864;28;20041;-62
2023/05/15 12:25:24;;;;;;;9.32;7.88;;;20.60;99.90;;;;;;5042171;28;20124;-62
2023/05/15 12:27:50;;;;;;;9.27;7.43;;;20.70;99.90;;;;;;5042072;28;20143;-63
2023/05/15 12:30:16;;;;;;;10.57;8.18;;;20.70;99.90;;;;;;5042050;28;20048;-61
2023/05/15 12:32:43;;;;;;;9.65;8.02;;;20.70;99.90;;;;;;5051047;28;20123;-60